sensor_id;sensor_type;location;lat;lon;timestamp;temperature;humidity
19970;DHT22;10146;47.754;9.566;2022-07-23T00:00:11;20.80;99.90
19970;DHT22;10146;47.754;9.566;2022-07-23T00:02:37;20.90;99.90
19970;DHT22;10146;47.754;9.566;2022-07-23T00:05:03;21.00;99.90
19970;DHT22;10146;47.754;9.566;2022-07-23T00:07:28;20.80;99.90
19970;DHT22;10146;47.754;9.566;2022-07-23T00:09:54;20.70;99.90
19970;DHT22;10146;47.754;9.566;2022-07-23T00:12:20;20.70;99.90
19970;DHT22;10146;47.754;9.566;2022-07-23T00:14:46;20.60;99.90
19970;DHT22;10146;47.754;9.566;2022-07-23T00:17:11;20.60;99.90
19970;DHT22;10146;47.754;9.566;2022-07-23T00:19:37;20.60;99.90
19970;DHT22;10146;47.754;9.566;2022-07-23T00:22:03;20.60;99.90
19970;DHT22;10146;47.754;9.566;2022-07-23T00:24:28;20.50;99.90
19970;DHT22;10146;47.754;9.566;2022-07-23T00:26:54;20.50;99.90
19970;DHT22;10146;47.754;9.566;2022-07-23T00:29:20;20.40;99.90
19970;DHT22;10146;47.754;9.566;2022-07-23T00:31:45;20.40;99.90
19970;DHT22;10146;47.754;9.566;2022-07-23T00:34:11;20.30;99.90
19970;DHT22;10146;47.754;9.566;2022-07-23T00:36:36;20.40;99.90
19970;DHT22;10146;47.754;9.566;2022-07-23T00:39:02;20.30;99.90
19970;DHT22;10146;47.754;9.566;2022-07-23T00:41:28;20.30;99.90
19970;DHT22;10146;47.754;9.566;2022-07-23T00:43:53;20.30;99.90
19970;DHT22;10146;47.754;9.566;2022-07-23T00:46:21;20.30;99.90
19970;DHT22;10146;47.754;9.566;2022-07-23T00:48:46;20.20;99.90
19970;DHT22;10146;47.754;9.566;2022-07-23T00:51:12;20.10;99.90
19970;DHT22;10146;47.754;9.566;2022-07-23T00:53:38;20.20;99.90
19970;DHT22;10146;47.754;9.566;2022-07-23T00:56:04;20.10;99.90
19970;DHT22;10146;47.754;9.566;2022-07-23T00:58:30;20.10;99.90
19970;DHT22;10146;47.754;9.566;2022-07-23T01:00:55;20.10;99.90
19970;DHT22;10146;47.754;9.566;2022-07-23T01:03:21;20.00;99.90
19970;DHT22;10146;47.754;9.566;2022-07-23T01:05:47;20.10;99.90
19970;DHT22;10146;47.754;9.566;2022-07-23T01:08:13;20.00;99.90
19970;DHT22;10146;47.754;9.566;2022-07-23T01:10:39;20.10;99.90
19970;DHT22;10146;47.754;9.566;2022-07-23T01:13:08;20.30;99.90
19970;DHT22;10146;47.754;9.566;2022-07-23T01:15:36;20.30;99.90
19970;DHT22;10146;47.754;9.566;2022-07-23T01:18:02;20.30;99.90
19970;DHT22;10146;47.754;9.566;2022-07-23T01:20:29;20.40;99.90
19970;DHT22;10146;47.754;9.566;2022-07-23T01:22:55;20.50;99.90
19970;DHT22;10146;47.754;9.566;2022-07-23T01:25:21;20.60;99.90
19970;DHT22;10146;47.754;9.566;2022-07-23T01:27:47;20.50;99.90
19970;DHT22;10146;47.754;9.566;2022-07-23T01:30:13;20.50;99.90
19970;DHT22;10146;47.754;9.566;2022-07-23T01:32:39;20.40;99.90
19970;DHT22;10146;47.754;9.566;2022-07-23T01:35:05;20.40;99.90
19970;DHT22;10146;47.754;9.566;2022-07-23T01:37:31;20.40;99.90
19970;DHT22;10146;47.754;9.566;2022-07-23T01:39:56;20.40;99.90
19970;DHT22;10146;47.754;9.566;2022-07-23T01:42:25;20.40;99.90
19970;DHT22;10146;47.754;9.566;2022-07-23T01:44:51;20.50;99.90
19970;DHT22;10146;47.754;9.566;2022-07-23T01:47:16;20.40;99.90
19970;DHT22;10146;47.754;9.566;2022-07-23T01:49:42;20.30;99.90
19970;DHT22;10146;47.754;9.566;2022-07-23T01:52:08;20.10;99.90
19970;DHT22;10146;47.754;9.566;2022-07-23T01:54:37;20.00;99.90
19970;DHT22;10146;47.754;9.566;2022-07-23T01:57:04;20.00;99.90
19970;DHT22;10146;47.754;9.566;2022-07-23T01:59:29;19.90;99.90
19970;DHT22;10146;47.754;9.566;2022-07-23T02:01:55;19.70;99.90
19970;DHT22;10146;47.754;9.566;2022-07-23T02:04:23;19.70;99.90
19970;DHT22;10146;47.754;9.566;2022-07-23T02:06:49;19.60;99.90
19970;DHT22;10146;47.754;9.566;2022-07-23T02:09:15;19.40;99.90
19970;DHT22;10146;47.754;9.566;2022-07-23T02:11:41;19.20;99.90
19970;DHT22;10146;47.754;9.566;2022-07-23T02:14:07;19.20;99.90
19970;DHT22;10146;47.754;9.566;2022-07-23T02:16:32;19.10;99.90
19970;DHT22;10146;47.754;9.566;2022-07-23T02:18:58;19.20;99.90
19970;DHT22;10146;47.754;9.566;2022-07-23T02:21:24;19.10;99.90
19970;DHT22;10146;47.754;9.566;2022-07-23T02:23:49;19.20;99.90
19970;DHT22;10146;47.754;9.566;2022-07-23T02:26:15;19.00;99.90
19970;DHT22;10146;47.754;9.566;2022-07-23T02:28:41;18.90;99.90
19970;DHT22;10146;47.754;9.566;2022-07-23T02:31:06;19.00;99.90
19970;DHT22;10146;47.754;9.566;2022-07-23T02:33:33;18.90;99.90
19970;DHT22;10146;47.754;9.566;2022-07-23T02:35:59;18.80;99.90
19970;DHT22;10146;47.754;9.566;2022-07-23T02:38:25;18.90;99.90
19970;DHT22;10146;47.754;9.566;2022-07-23T02:40:50;18.90;99.90
19970;DHT22;10146;47.754;9.566;2022-07-23T02:43:16;18.80;99.90
19970;DHT22;10146;47.754;9.566;2022-07-23T02:45:42;18.70;99.90
19970;DHT22;10146;47.754;9.566;2022-07-23T02:48:08;18.60;99.90
19970;DHT22;10146;47.754;9.566;2022-07-23T02:50:33;18.70;99.90
19970;DHT22;10146;47.754;9.566;2022-07-23T02:52:59;18.60;99.90
19970;DHT22;10146;47.754;9.566;2022-07-23T02:55:25;18.60;99.90
19970;DHT22;10146;47.754;9.566;2022-07-23T02:57:50;18.60;99.90
19970;DHT22;10146;47.754;9.566;2022-07-23T03:00:16;18.60;99.90
19970;DHT22;10146;47.754;9.566;2022-07-23T03:02:41;18.70;99.90
19970;DHT22;10146;47.754;9.566;2022-07-23T03:05:07;18.70;99.90
19970;DHT22;10146;47.754;9.566;2022-07-23T03:07:33;18.80;99.90
19970;DHT22;10146;47.754;9.566;2022-07-23T03:09:59;18.80;99.90
19970;DHT22;10146;47.754;9.566;2022-07-23T03:12:25;18.90;99.90
19970;DHT22;10146;47.754;9.566;2022-07-23T03:14:50;18.90;99.90
19970;DHT22;10146;47.754;9.566;2022-07-23T03:17:16;19.00;99.90
19970;DHT22;10146;47.754;9.566;2022-07-23T03:19:42;18.90;99.90
19970;DHT22;10146;47.754;9.566;2022-07-23T03:22:08;18.90;99.90
19970;DHT22;10146;47.754;9.566;2022-07-23T03:24:33;18.90;99.90
19970;DHT22;10146;47.754;9.566;2022-07-23T03:27:18;19.00;99.90
19970;DHT22;10146;47.754;9.566;2022-07-23T03:29:43;19.00;99.90
19970;DHT22;10146;47.754;9.566;2022-07-23T03:32:09;19.00;99.90
19970;DHT22;10146;47.754;9.566;2022-07-23T03:34:35;19.00;99.90
19970;DHT22;10146;47.754;9.566;2022-07-23T03:37:01;19.00;99.90
19970;DHT22;10146;47.754;9.566;2022-07-23T03:39:26;19.00;99.90
19970;DHT22;10146;47.754;9.566;2022-07-23T03:41:52;19.10;99.90
19970;DHT22;10146;47.754;9.566;2022-07-23T03:44:18;19.30;99.90
19970;DHT22;10146;47.754;9.566;2022-07-23T03:46:43;19.40;99.90
19970;DHT22;10146;47.754;9.566;2022-07-23T03:49:09;19.30;99.90
19970;DHT22;10146;47.754;9.566;2022-07-23T03:51:34;19.30;99.90
19970;DHT22;10146;47.754;9.566;2022-07-23T03:54:00;19.30;99.90
19970;DHT22;10146;47.754;9.566;2022-07-23T03:56:26;19.20;99.90
19970;DHT22;10146;47.754;9.566;2022-07-23T03:58:52;19.20;99.90
19970;DHT22;10146;47.754;9.566;2022-07-23T04:01:17;19.30;99.90
19970;DHT22;10146;47.754;9.566;2022-07-23T04:03:43;19.30;99.90
19970;DHT22;10146;47.754;9.566;2022-07-23T04:06:08;19.20;99.90
19970;DHT22;10146;47.754;9.566;2022-07-23T04:08:34;19.10;99.90
19970;DHT22;10146;47.754;9.566;2022-07-23T04:11:00;19.00;99.90
19970;DHT22;10146;47.754;9.566;2022-07-23T04:13:25;19.00;99.90
19970;DHT22;10146;47.754;9.566;2022-07-23T04:15:51;19.00;99.90
19970;DHT22;10146;47.754;9.566;2022-07-23T04:18:17;18.90;99.90
19970;DHT22;10146;47.754;9.566;2022-07-23T04:20:44;18.80;99.90
19970;DHT22;10146;47.754;9.566;2022-07-23T04:23:10;18.80;99.90
19970;DHT22;10146;47.754;9.566;2022-07-23T04:25:35;18.80;99.90
19970;DHT22;10146;47.754;9.566;2022-07-23T04:28:01;18.90;99.90
19970;DHT22;10146;47.754;9.566;2022-07-23T04:30:27;18.80;99.90
19970;DHT22;10146;47.754;9.566;2022-07-23T04:32:53;18.80;99.90
19970;DHT22;10146;47.754;9.566;2022-07-23T04:35:18;18.80;99.90
19970;DHT22;10146;47.754;9.566;2022-07-23T04:37:44;18.80;99.90
19970;DHT22;10146;47.754;9.566;2022-07-23T04:40:11;18.70;99.90
19970;DHT22;10146;47.754;9.566;2022-07-23T04:42:37;18.70;99.90
19970;DHT22;10146;47.754;9.566;2022-07-23T04:45:03;18.80;99.90
19970;DHT22;10146;47.754;9.566;2022-07-23T04:47:29;18.80;99.90
19970;DHT22;10146;47.754;9.566;2022-07-23T04:49:56;18.90;99.90
19970;DHT22;10146;47.754;9.566;2022-07-23T04:52:21;18.90;99.90
19970;DHT22;10146;47.754;9.566;2022-07-23T04:54:47;19.00;99.90
19970;DHT22;10146;47.754;9.566;2022-07-23T04:57:12;19.00;99.90
19970;DHT22;10146;47.754;9.566;2022-07-23T04:59:38;19.00;99.90
19970;DHT22;10146;47.754;9.566;2022-07-23T05:02:04;19.00;99.90
19970;DHT22;10146;47.754;9.566;2022-07-23T05:04:29;19.00;99.90
19970;DHT22;10146;47.754;9.566;2022-07-23T05:06:57;18.90;99.90
19970;DHT22;10146;47.754;9.566;2022-07-23T05:09:22;18.90;99.90
19970;DHT22;10146;47.754;9.566;2022-07-23T05:11:48;18.90;99.90
19970;DHT22;10146;47.754;9.566;2022-07-23T05:14:13;18.90;99.90
19970;DHT22;10146;47.754;9.566;2022-07-23T05:16:39;18.80;99.90
19970;DHT22;10146;47.754;9.566;2022-07-23T05:19:05;18.80;99.90
19970;DHT22;10146;47.754;9.566;2022-07-23T05:21:30;18.90;99.90
19970;DHT22;10146;47.754;9.566;2022-07-23T05:23:56;19.00;99.90
19970;DHT22;10146;47.754;9.566;2022-07-23T05:26:21;19.00;99.90
19970;DHT22;10146;47.754;9.566;2022-07-23T05:28:47;19.00;99.90
19970;DHT22;10146;47.754;9.566;2022-07-23T05:31:13;19.10;99.90
19970;DHT22;10146;47.754;9.566;2022-07-23T05:33:39;19.10;99.90
19970;DHT22;10146;47.754;9.566;2022-07-23T05:36:05;19.00;99.90
19970;DHT22;10146;47.754;9.566;2022-07-23T05:38:32;18.90;99.90
19970;DHT22;10146;47.754;9.566;2022-07-23T05:40:57;18.90;99.90
19970;DHT22;10146;47.754;9.566;2022-07-23T05:43:23;18.90;99.90
19970;DHT22;10146;47.754;9.566;2022-07-23T05:45:49;18.80;99.90
19970;DHT22;10146;47.754;9.566;2022-07-23T05:48:14;18.90;99.90
19970;DHT22;10146;47.754;9.566;2022-07-23T05:50:40;18.90;99.90
19970;DHT22;10146;47.754;9.566;2022-07-23T05:53:06;18.90;99.90
19970;DHT22;10146;47.754;9.566;2022-07-23T05:55:31;18.90;99.90
19970;DHT22;10146;47.754;9.566;2022-07-23T05:57:58;19.10;99.90
19970;DHT22;10146;47.754;9.566;2022-07-23T06:00:24;19.10;99.90
19970;DHT22;10146;47.754;9.566;2022-07-23T06:02:50;19.10;99.90
19970;DHT22;10146;47.754;9.566;2022-07-23T06:05:16;19.10;99.90
19970;DHT22;10146;47.754;9.566;2022-07-23T06:07:42;19.20;99.90
19970;DHT22;10146;47.754;9.566;2022-07-23T06:10:08;19.20;99.90
19970;DHT22;10146;47.754;9.566;2022-07-23T06:12:34;19.10;99.90
19970;DHT22;10146;47.754;9.566;2022-07-23T06:15:00;19.10;99.90
19970;DHT22;10146;47.754;9.566;2022-07-23T06:17:26;19.10;99.90
19970;DHT22;10146;47.754;9.566;2022-07-23T06:19:52;19.10;99.90
19970;DHT22;10146;47.754;9.566;2022-07-23T06:22:18;19.10;99.90
19970;DHT22;10146;47.754;9.566;2022-07-23T06:24:43;19.20;99.90
19970;DHT22;10146;47.754;9.566;2022-07-23T06:27:09;19.10;99.90
19970;DHT22;10146;47.754;9.566;2022-07-23T06:29:35;19.20;99.90
19970;DHT22;10146;47.754;9.566;2022-07-23T06:32:00;19.20;99.90
19970;DHT22;10146;47.754;9.566;2022-07-23T06:34:26;19.20;99.90
19970;DHT22;10146;47.754;9.566;2022-07-23T06:36:52;19.20;99.90
19970;DHT22;10146;47.754;9.566;2022-07-23T06:39:17;19.20;99.90
19970;DHT22;10146;47.754;9.566;2022-07-23T06:41:44;19.30;99.90
19970;DHT22;10146;47.754;9.566;2022-07-23T06:44:09;19.40;99.90
19970;DHT22;10146;47.754;9.566;2022-07-23T06:46:35;19.40;99.90
19970;DHT22;10146;47.754;9.566;2022-07-23T06:49:01;19.40;99.90
19970;DHT22;10146;47.754;9.566;2022-07-23T06:51:27;19.40;99.90
19970;DHT22;10146;47.754;9.566;2022-07-23T06:53:53;19.40;99.90
19970;DHT22;10146;47.754;9.566;2022-07-23T06:56:18;19.30;99.90
19970;DHT22;10146;47.754;9.566;2022-07-23T06:58:44;19.30;99.90
19970;DHT22;10146;47.754;9.566;2022-07-23T07:01:10;19.40;99.90
19970;DHT22;10146;47.754;9.566;2022-07-23T07:03:35;19.40;99.90
19970;DHT22;10146;47.754;9.566;2022-07-23T07:06:01;19.30;99.90
19970;DHT22;10146;47.754;9.566;2022-07-23T07:08:27;19.40;99.90
19970;DHT22;10146;47.754;9.566;2022-07-23T07:10:53;19.40;99.90
19970;DHT22;10146;47.754;9.566;2022-07-23T07:13:19;19.40;99.90
19970;DHT22;10146;47.754;9.566;2022-07-23T07:15:44;19.50;99.90
19970;DHT22;10146;47.754;9.566;2022-07-23T07:18:10;19.60;99.90
19970;DHT22;10146;47.754;9.566;2022-07-23T07:20:36;19.60;99.90
19970;DHT22;10146;47.754;9.566;2022-07-23T07:23:01;19.80;99.90
19970;DHT22;10146;47.754;9.566;2022-07-23T07:25:27;19.90;99.90
19970;DHT22;10146;47.754;9.566;2022-07-23T07:27:53;19.90;99.90
19970;DHT22;10146;47.754;9.566;2022-07-23T07:30:18;20.00;99.90
19970;DHT22;10146;47.754;9.566;2022-07-23T07:32:44;20.00;99.90
19970;DHT22;10146;47.754;9.566;2022-07-23T07:35:10;20.10;99.90
19970;DHT22;10146;47.754;9.566;2022-07-23T07:37:36;20.10;99.90
19970;DHT22;10146;47.754;9.566;2022-07-23T07:40:03;20.20;99.90
19970;DHT22;10146;47.754;9.566;2022-07-23T07:42:28;20.40;99.90
19970;DHT22;10146;47.754;9.566;2022-07-23T07:44:54;20.40;99.90
19970;DHT22;10146;47.754;9.566;2022-07-23T07:47:20;20.50;99.90
19970;DHT22;10146;47.754;9.566;2022-07-23T07:49:45;20.50;99.90
19970;DHT22;10146;47.754;9.566;2022-07-23T07:52:11;20.60;99.90
19970;DHT22;10146;47.754;9.566;2022-07-23T07:54:37;20.60;99.90
19970;DHT22;10146;47.754;9.566;2022-07-23T07:57:03;20.60;99.90
19970;DHT22;10146;47.754;9.566;2022-07-23T07:59:28;20.80;99.90
19970;DHT22;10146;47.754;9.566;2022-07-23T08:01:54;20.70;99.90
19970;DHT22;10146;47.754;9.566;2022-07-23T08:04:20;20.70;99.90
19970;DHT22;10146;47.754;9.566;2022-07-23T08:06:46;20.70;99.90
19970;DHT22;10146;47.754;9.566;2022-07-23T08:09:11;20.70;99.90
19970;DHT22;10146;47.754;9.566;2022-07-23T08:11:37;20.70;99.90
19970;DHT22;10146;47.754;9.566;2022-07-23T08:14:03;20.70;99.90
19970;DHT22;10146;47.754;9.566;2022-07-23T08:16:28;20.70;99.90
19970;DHT22;10146;47.754;9.566;2022-07-23T08:18:54;20.70;99.90
19970;DHT22;10146;47.754;9.566;2022-07-23T08:21:20;20.70;99.90
19970;DHT22;10146;47.754;9.566;2022-07-23T08:23:46;20.70;99.90
19970;DHT22;10146;47.754;9.566;2022-07-23T08:26:12;20.70;99.90
19970;DHT22;10146;47.754;9.566;2022-07-23T08:28:38;20.60;99.90
19970;DHT22;10146;47.754;9.566;2022-07-23T08:31:03;20.70;99.90
19970;DHT22;10146;47.754;9.566;2022-07-23T08:33:31;20.60;99.90
19970;DHT22;10146;47.754;9.566;2022-07-23T08:35:56;20.60;99.90
19970;DHT22;10146;47.754;9.566;2022-07-23T08:38:22;20.60;99.90
19970;DHT22;10146;47.754;9.566;2022-07-23T08:40:52;20.50;99.90
19970;DHT22;10146;47.754;9.566;2022-07-23T08:43:20;20.60;99.90
19970;DHT22;10146;47.754;9.566;2022-07-23T08:45:49;20.60;99.90
19970;DHT22;10146;47.754;9.566;2022-07-23T08:48:20;20.70;99.90
19970;DHT22;10146;47.754;9.566;2022-07-23T08:51:01;20.60;99.90
19970;DHT22;10146;47.754;9.566;2022-07-23T08:53:28;20.70;99.90
19970;DHT22;10146;47.754;9.566;2022-07-23T08:55:55;20.70;99.90
19970;DHT22;10146;47.754;9.566;2022-07-23T08:58:23;20.70;99.90
19970;DHT22;10146;47.754;9.566;2022-07-23T09:00:49;20.70;99.90
19970;DHT22;10146;47.754;9.566;2022-07-23T09:03:18;20.80;99.90
19970;DHT22;10146;47.754;9.566;2022-07-23T09:05:44;20.80;99.90
19970;DHT22;10146;47.754;9.566;2022-07-23T09:08:11;20.80;99.90
19970;DHT22;10146;47.754;9.566;2022-07-23T09:10:51;20.80;99.90
19970;DHT22;10146;47.754;9.566;2022-07-23T09:15:53;20.90;99.90
19970;DHT22;10146;47.754;9.566;2022-07-23T09:18:19;20.90;99.90
19970;DHT22;10146;47.754;9.566;2022-07-23T09:20:45;21.00;99.90
19970;DHT22;10146;47.754;9.566;2022-07-23T09:23:10;21.00;99.90
19970;DHT22;10146;47.754;9.566;2022-07-23T09:25:36;21.10;99.90
19970;DHT22;10146;47.754;9.566;2022-07-23T09:28:02;21.20;99.90
19970;DHT22;10146;47.754;9.566;2022-07-23T09:30:32;21.20;99.90
19970;DHT22;10146;47.754;9.566;2022-07-23T09:33:26;21.30;99.90
19970;DHT22;10146;47.754;9.566;2022-07-23T09:35:55;21.40;99.90
19970;DHT22;10146;47.754;9.566;2022-07-23T09:38:23;21.50;99.90
19970;DHT22;10146;47.754;9.566;2022-07-23T09:41:07;21.40;99.90
19970;DHT22;10146;47.754;9.566;2022-07-23T09:43:33;21.40;99.90
19970;DHT22;10146;47.754;9.566;2022-07-23T09:46:25;21.50;99.90
19970;DHT22;10146;47.754;9.566;2022-07-23T09:48:52;21.40;99.90
19970;DHT22;10146;47.754;9.566;2022-07-23T09:51:19;21.40;99.90
19970;DHT22;10146;47.754;9.566;2022-07-23T09:54:03;21.30;99.90
19970;DHT22;10146;47.754;9.566;2022-07-23T09:56:29;21.30;99.90
19970;DHT22;10146;47.754;9.566;2022-07-23T09:58:55;21.20;99.90
19970;DHT22;10146;47.754;9.566;2022-07-23T10:01:32;21.20;99.90
19970;DHT22;10146;47.754;9.566;2022-07-23T10:03:59;21.20;99.90
19970;DHT22;10146;47.754;9.566;2022-07-23T10:06:26;21.20;99.90
19970;DHT22;10146;47.754;9.566;2022-07-23T10:08:53;21.20;99.90
19970;DHT22;10146;47.754;9.566;2022-07-23T10:11:23;21.20;99.90
19970;DHT22;10146;47.754;9.566;2022-07-23T10:13:49;21.20;99.90
19970;DHT22;10146;47.754;9.566;2022-07-23T10:16:19;21.20;99.90
19970;DHT22;10146;47.754;9.566;2022-07-23T10:18:46;21.30;99.90
19970;DHT22;10146;47.754;9.566;2022-07-23T10:21:18;21.30;99.90
19970;DHT22;10146;47.754;9.566;2022-07-23T10:26:41;21.30;99.90
19970;DHT22;10146;47.754;9.566;2022-07-23T10:29:14;21.40;99.90
19970;DHT22;10146;47.754;9.566;2022-07-23T10:34:44;21.40;99.90
19970;DHT22;10146;47.754;9.566;2022-07-23T10:37:23;21.40;99.90
19970;DHT22;10146;47.754;9.566;2022-07-23T10:40:14;21.50;99.90
19970;DHT22;10146;47.754;9.566;2022-07-23T10:42:42;21.60;99.90
19970;DHT22;10146;47.754;9.566;2022-07-23T10:47:53;21.80;99.90
19970;DHT22;10146;47.754;9.566;2022-07-23T10:50:24;21.90;99.90
19970;DHT22;10146;47.754;9.566;2022-07-23T10:55:45;22.00;99.90
19970;DHT22;10146;47.754;9.566;2022-07-23T10:58:21;22.10;99.90
19970;DHT22;10146;47.754;9.566;2022-07-23T11:00:47;22.10;99.90
19970;DHT22;10146;47.754;9.566;2022-07-23T11:03:34;22.20;99.90
19970;DHT22;10146;47.754;9.566;2022-07-23T11:06:03;22.10;99.90
19970;DHT22;10146;47.754;9.566;2022-07-23T11:08:29;22.20;99.90
19970;DHT22;10146;47.754;9.566;2022-07-23T11:11:17;22.10;99.90
19970;DHT22;10146;47.754;9.566;2022-07-23T11:13:44;22.10;99.90
19970;DHT22;10146;47.754;9.566;2022-07-23T11:16:21;22.10;99.90
19970;DHT22;10146;47.754;9.566;2022-07-23T11:24:00;22.00;99.90
19970;DHT22;10146;47.754;9.566;2022-07-23T11:32:08;22.00;99.90
19970;DHT22;10146;47.754;9.566;2022-07-23T11:34:44;22.00;99.90
19970;DHT22;10146;47.754;9.566;2022-07-23T11:37:26;22.00;99.90
19970;DHT22;10146;47.754;9.566;2022-07-23T11:39:59;22.00;99.90
19970;DHT22;10146;47.754;9.566;2022-07-23T11:42:24;22.00;99.90
19970;DHT22;10146;47.754;9.566;2022-07-23T11:44:51;22.00;99.90
19970;DHT22;10146;47.754;9.566;2022-07-23T11:47:22;22.00;99.90
19970;DHT22;10146;47.754;9.566;2022-07-23T11:49:55;21.90;99.90
19970;DHT22;10146;47.754;9.566;2022-07-23T11:52:22;21.90;99.90
19970;DHT22;10146;47.754;9.566;2022-07-23T11:54:50;21.90;99.90
19970;DHT22;10146;47.754;9.566;2022-07-23T11:57:17;21.90;99.90
19970;DHT22;10146;47.754;9.566;2022-07-23T11:59:43;22.00;99.90
19970;DHT22;10146;47.754;9.566;2022-07-23T12:02:11;22.20;99.90
19970;DHT22;10146;47.754;9.566;2022-07-23T12:04:44;22.20;99.90
19970;DHT22;10146;47.754;9.566;2022-07-23T12:10:21;22.20;99.90
19970;DHT22;10146;47.754;9.566;2022-07-23T12:12:51;22.30;99.90
19970;DHT22;10146;47.754;9.566;2022-07-23T12:15:31;22.30;99.90
19970;DHT22;10146;47.754;9.566;2022-07-23T12:18:00;22.30;99.90
19970;DHT22;10146;47.754;9.566;2022-07-23T12:20:29;22.10;99.90
19970;DHT22;10146;47.754;9.566;2022-07-23T12:22:59;22.10;99.90
19970;DHT22;10146;47.754;9.566;2022-07-23T12:25:37;22.10;99.90
19970;DHT22;10146;47.754;9.566;2022-07-23T12:28:07;22.10;99.90
19970;DHT22;10146;47.754;9.566;2022-07-23T12:30:53;22.10;99.90
19970;DHT22;10146;47.754;9.566;2022-07-23T12:33:26;22.10;99.90
19970;DHT22;10146;47.754;9.566;2022-07-23T12:35:54;22.00;99.90
19970;DHT22;10146;47.754;9.566;2022-07-23T12:38:22;22.00;99.90
19970;DHT22;10146;47.754;9.566;2022-07-23T12:40:56;22.00;99.90
19970;DHT22;10146;47.754;9.566;2022-07-23T12:43:30;22.10;99.90
19970;DHT22;10146;47.754;9.566;2022-07-23T12:46:03;22.60;99.90
19970;DHT22;10146;47.754;9.566;2022-07-23T12:48:31;23.10;99.90
19970;DHT22;10146;47.754;9.566;2022-07-23T12:51:15;23.60;99.90
19970;DHT22;10146;47.754;9.566;2022-07-23T12:53:46;24.20;99.90
19970;DHT22;10146;47.754;9.566;2022-07-23T12:56:28;24.20;99.90
19970;DHT22;10146;47.754;9.566;2022-07-23T12:59:30;24.20;99.90
19970;DHT22;10146;47.754;9.566;2022-07-23T13:01:56;24.20;99.90
19970;DHT22;10146;47.754;9.566;2022-07-23T13:04:25;24.30;99.90
19970;DHT22;10146;47.754;9.566;2022-07-23T13:06:56;24.30;99.90
19970;DHT22;10146;47.754;9.566;2022-07-23T13:09:25;24.30;99.90
19970;DHT22;10146;47.754;9.566;2022-07-23T13:11:53;24.30;99.90
19970;DHT22;10146;47.754;9.566;2022-07-23T13:14:20;24.40;99.90
19970;DHT22;10146;47.754;9.566;2022-07-23T13:16:47;24.50;99.90
19970;DHT22;10146;47.754;9.566;2022-07-23T13:19:13;24.70;99.90
19970;DHT22;10146;47.754;9.566;2022-07-23T13:21:40;24.90;99.90
19970;DHT22;10146;47.754;9.566;2022-07-23T13:24:09;25.00;99.90
19970;DHT22;10146;47.754;9.566;2022-07-23T13:26:35;25.00;99.90
19970;DHT22;10146;47.754;9.566;2022-07-23T13:29:01;25.20;99.90
19970;DHT22;10146;47.754;9.566;2022-07-23T13:31:26;25.40;99.90
19970;DHT22;10146;47.754;9.566;2022-07-23T13:33:52;25.40;99.90
19970;DHT22;10146;47.754;9.566;2022-07-23T13:36:17;25.50;99.90
19970;DHT22;10146;47.754;9.566;2022-07-23T13:38:43;25.80;99.90
19970;DHT22;10146;47.754;9.566;2022-07-23T13:41:09;26.10;99.90
19970;DHT22;10146;47.754;9.566;2022-07-23T13:43:35;26.00;99.90
19970;DHT22;10146;47.754;9.566;2022-07-23T13:46:00;25.80;99.90
19970;DHT22;10146;47.754;9.566;2022-07-23T13:48:26;25.90;99.90
19970;DHT22;10146;47.754;9.566;2022-07-23T13:50:52;26.10;99.90
19970;DHT22;10146;47.754;9.566;2022-07-23T13:53:20;26.40;99.90
19970;DHT22;10146;47.754;9.566;2022-07-23T13:55:46;26.60;99.90
19970;DHT22;10146;47.754;9.566;2022-07-23T13:58:12;26.80;99.90
19970;DHT22;10146;47.754;9.566;2022-07-23T14:00:42;26.80;99.90
19970;DHT22;10146;47.754;9.566;2022-07-23T14:03:08;26.70;99.90
19970;DHT22;10146;47.754;9.566;2022-07-23T14:05:34;26.60;99.90
19970;DHT22;10146;47.754;9.566;2022-07-23T14:08:00;26.60;99.90
19970;DHT22;10146;47.754;9.566;2022-07-23T14:10:26;26.70;99.90
19970;DHT22;10146;47.754;9.566;2022-07-23T14:12:52;27.00;99.90
19970;DHT22;10146;47.754;9.566;2022-07-23T14:15:20;27.20;99.90
19970;DHT22;10146;47.754;9.566;2022-07-23T14:17:46;27.20;99.90
19970;DHT22;10146;47.754;9.566;2022-07-23T14:20:13;27.30;99.90
19970;DHT22;10146;47.754;9.566;2022-07-23T14:22:39;27.50;99.90
19970;DHT22;10146;47.754;9.566;2022-07-23T14:25:06;27.50;99.90
19970;DHT22;10146;47.754;9.566;2022-07-23T14:27:32;27.60;99.90
19970;DHT22;10146;47.754;9.566;2022-07-23T14:29:58;27.80;99.90
19970;DHT22;10146;47.754;9.566;2022-07-23T14:32:24;28.00;99.90
19970;DHT22;10146;47.754;9.566;2022-07-23T14:34:50;28.10;99.90
19970;DHT22;10146;47.754;9.566;2022-07-23T14:37:16;28.10;99.90
19970;DHT22;10146;47.754;9.566;2022-07-23T14:39:43;28.10;99.90
19970;DHT22;10146;47.754;9.566;2022-07-23T14:42:10;28.10;99.90
19970;DHT22;10146;47.754;9.566;2022-07-23T14:44:36;28.30;99.90
19970;DHT22;10146;47.754;9.566;2022-07-23T14:47:03;28.40;99.90
19970;DHT22;10146;47.754;9.566;2022-07-23T14:49:30;28.50;99.90
19970;DHT22;10146;47.754;9.566;2022-07-23T14:51:56;28.70;99.90
19970;DHT22;10146;47.754;9.566;2022-07-23T14:54:22;28.70;99.90
19970;DHT22;10146;47.754;9.566;2022-07-23T14:56:48;28.60;99.90
19970;DHT22;10146;47.754;9.566;2022-07-23T14:59:14;28.60;99.90
19970;DHT22;10146;47.754;9.566;2022-07-23T15:01:39;28.70;99.90
19970;DHT22;10146;47.754;9.566;2022-07-23T15:04:06;28.30;99.90
19970;DHT22;10146;47.754;9.566;2022-07-23T15:06:32;28.40;99.90
19970;DHT22;10146;47.754;9.566;2022-07-23T15:08:58;28.50;99.90
19970;DHT22;10146;47.754;9.566;2022-07-23T15:11:28;28.70;99.90
19970;DHT22;10146;47.754;9.566;2022-07-23T15:13:57;29.00;99.90
19970;DHT22;10146;47.754;9.566;2022-07-23T15:16:23;29.00;99.90
19970;DHT22;10146;47.754;9.566;2022-07-23T15:18:48;28.90;99.90
19970;DHT22;10146;47.754;9.566;2022-07-23T15:21:14;28.50;99.90
19970;DHT22;10146;47.754;9.566;2022-07-23T15:23:40;28.40;99.90
19970;DHT22;10146;47.754;9.566;2022-07-23T15:26:06;27.90;99.90
19970;DHT22;10146;47.754;9.566;2022-07-23T15:28:33;27.80;99.90
19970;DHT22;10146;47.754;9.566;2022-07-23T15:30:59;27.80;99.90
19970;DHT22;10146;47.754;9.566;2022-07-23T15:33:24;27.80;99.90
19970;DHT22;10146;47.754;9.566;2022-07-23T15:35:50;27.70;99.90
19970;DHT22;10146;47.754;9.566;2022-07-23T15:38:18;27.50;99.90
19970;DHT22;10146;47.754;9.566;2022-07-23T15:40:43;27.70;99.90
19970;DHT22;10146;47.754;9.566;2022-07-23T15:43:09;27.80;99.90
19970;DHT22;10146;47.754;9.566;2022-07-23T15:45:35;28.20;99.90
19970;DHT22;10146;47.754;9.566;2022-07-23T15:48:00;28.60;99.90
19970;DHT22;10146;47.754;9.566;2022-07-23T15:50:26;28.80;99.90
19970;DHT22;10146;47.754;9.566;2022-07-23T15:52:52;29.10;99.90
19970;DHT22;10146;47.754;9.566;2022-07-23T15:55:17;29.30;99.90
19970;DHT22;10146;47.754;9.566;2022-07-23T15:57:44;29.40;99.90